sensor_id;sensor_type;location;lat;lon;timestamp;P1;durP1;ratioP1;P2;durP2;ratioP2
76566;SDS011;65428;53.194;6.132;2023-06-01T00:02:02;12.88;;;5.70;;
76566;SDS011;65428;53.194;6.132;2023-06-01T00:04:28;13.33;;;6.33;;
76566;SDS011;65428;53.194;6.132;2023-06-01T00:06:54;13.23;;;5.87;;
76566;SDS011;65428;53.194;6.132;2023-06-01T00:09:20;10.73;;;6.05;;
76566;SDS011;65428;53.194;6.132;2023-06-01T00:11:45;13.37;;;6.33;;
76566;SDS011;65428;53.194;6.132;2023-06-01T00:14:11;11.43;;;5.95;;
76566;SDS011;65428;53.194;6.132;2023-06-01T00:16:37;12.17;;;6.17;;
76566;SDS011;65428;53.194;6.132;2023-06-01T00:19:02;12.00;;;6.50;;
76566;SDS011;65428;53.194;6.132;2023-06-01T00:21:29;12.07;;;6.32;;
76566;SDS011;65428;53.194;6.132;2023-06-01T00:23:57;11.95;;;6.35;;
76566;SDS011;65428;53.194;6.132;2023-06-01T00:26:23;12.63;;;6.22;;
76566;SDS011;65428;53.194;6.132;2023-06-01T00:28:50;12.75;;;5.88;;
76566;SDS011;65428;53.194;6.132;2023-06-01T00:31:16;12.50;;;5.95;;
76566;SDS011;65428;53.194;6.132;2023-06-01T00:33:41;12.32;;;5.70;;
76566;SDS011;65428;53.194;6.132;2023-06-01T00:36:07;10.80;;;5.07;;
76566;SDS011;65428;53.194;6.132;2023-06-01T00:38:33;9.70;;;4.93;;
76566;SDS011;65428;53.194;6.132;2023-06-01T00:40:58;10.43;;;4.70;;
76566;SDS011;65428;53.194;6.132;2023-06-01T00:43:24;9.70;;;4.53;;
76566;SDS011;65428;53.194;6.132;2023-06-01T00:45:50;9.70;;;4.72;;
76566;SDS011;65428;53.194;6.132;2023-06-01T00:48:15;10.63;;;4.90;;
76566;SDS011;65428;53.194;6.132;2023-06-01T00:50:42;10.20;;;4.22;;
76566;SDS011;65428;53.194;6.132;2023-06-01T00:53:10;11.05;;;4.97;;
76566;SDS011;65428;53.194;6.132;2023-06-01T00:55:40;10.15;;;5.10;;
76566;SDS011;65428;53.194;6.132;2023-06-01T00:58:06;10.63;;;4.40;;
76566;SDS011;65428;53.194;6.132;2023-06-01T01:00:32;9.93;;;4.00;;
76566;SDS011;65428;53.194;6.132;2023-06-01T01:02:58;12.93;;;4.50;;
76566;SDS011;65428;53.194;6.132;2023-06-01T01:05:25;9.07;;;4.45;;
76566;SDS011;65428;53.194;6.132;2023-06-01T01:13:27;9.80;;;5.50;;
76566;SDS011;65428;53.194;6.132;2023-06-01T01:16:09;10.50;;;5.18;;
76566;SDS011;65428;53.194;6.132;2023-06-01T01:18:45;15.23;;;6.60;;
76566;SDS011;65428;53.194;6.132;2023-06-01T01:21:19;13.70;;;6.78;;
76566;SDS011;65428;53.194;6.132;2023-06-01T01:29:00;12.30;;;7.10;;
76566;SDS011;65428;53.194;6.132;2023-06-01T01:31:31;11.57;;;7.20;;
76566;SDS011;65428;53.194;6.132;2023-06-01T01:33:59;15.18;;;7.60;;
76566;SDS011;65428;53.194;6.132;2023-06-01T01:36:26;13.32;;;7.35;;
76566;SDS011;65428;53.194;6.132;2023-06-01T01:38:53;15.70;;;7.63;;
76566;SDS011;65428;53.194;6.132;2023-06-01T01:41:20;13.18;;;7.00;;
76566;SDS011;65428;53.194;6.132;2023-06-01T01:43:47;12.40;;;6.82;;
76566;SDS011;65428;53.194;6.132;2023-06-01T01:46:24;13.50;;;7.10;;
76566;SDS011;65428;53.194;6.132;2023-06-01T01:52:04;13.15;;;6.47;;
76566;SDS011;65428;53.194;6.132;2023-06-01T01:54:37;10.73;;;5.75;;
76566;SDS011;65428;53.194;6.132;2023-06-01T01:57:06;10.87;;;5.67;;
76566;SDS011;65428;53.194;6.132;2023-06-01T01:59:33;10.40;;;5.43;;
76566;SDS011;65428;53.194;6.132;2023-06-01T02:02:00;9.60;;;4.95;;
76566;SDS011;65428;53.194;6.132;2023-06-01T02:04:26;7.72;;;4.90;;
76566;SDS011;65428;53.194;6.132;2023-06-01T02:06:51;10.27;;;4.23;;
76566;SDS011;65428;53.194;6.132;2023-06-01T02:09:17;8.85;;;4.80;;
76566;SDS011;65428;53.194;6.132;2023-06-01T02:11:43;8.98;;;4.68;;
76566;SDS011;65428;53.194;6.132;2023-06-01T02:14:08;9.73;;;5.03;;
76566;SDS011;65428;53.194;6.132;2023-06-01T02:16:35;8.70;;;4.47;;
76566;SDS011;65428;53.194;6.132;2023-06-01T02:19:00;9.77;;;4.72;;
76566;SDS011;65428;53.194;6.132;2023-06-01T02:21:27;10.68;;;4.53;;
76566;SDS011;65428;53.194;6.132;2023-06-01T02:23:53;8.85;;;4.43;;
76566;SDS011;65428;53.194;6.132;2023-06-01T02:26:19;11.50;;;5.13;;
76566;SDS011;65428;53.194;6.132;2023-06-01T02:28:46;10.70;;;5.13;;
76566;SDS011;65428;53.194;6.132;2023-06-01T02:31:12;10.68;;;5.40;;
76566;SDS011;65428;53.194;6.132;2023-06-01T02:33:39;11.37;;;5.50;;
76566;SDS011;65428;53.194;6.132;2023-06-01T02:36:05;9.07;;;5.20;;
76566;SDS011;65428;53.194;6.132;2023-06-01T02:38:31;11.07;;;5.70;;
76566;SDS011;65428;53.194;6.132;2023-06-01T02:40:56;9.88;;;5.68;;
76566;SDS011;65428;53.194;6.132;2023-06-01T02:43:22;10.27;;;5.43;;
76566;SDS011;65428;53.194;6.132;2023-06-01T02:45:48;10.93;;;5.47;;
76566;SDS011;65428;53.194;6.132;2023-06-01T02:48:13;11.10;;;6.50;;
76566;SDS011;65428;53.194;6.132;2023-06-01T02:50:39;10.23;;;6.35;;
76566;SDS011;65428;53.194;6.132;2023-06-01T02:53:05;10.15;;;6.00;;
76566;SDS011;65428;53.194;6.132;2023-06-01T02:55:31;8.10;;;4.53;;
76566;SDS011;65428;53.194;6.132;2023-06-01T02:57:56;8.50;;;3.87;;
76566;SDS011;65428;53.194;6.132;2023-06-01T03:00:22;7.28;;;3.42;;
76566;SDS011;65428;53.194;6.132;2023-06-01T03:02:48;7.30;;;3.40;;
76566;SDS011;65428;53.194;6.132;2023-06-01T03:05:14;5.50;;;2.53;;
76566;SDS011;65428;53.194;6.132;2023-06-01T03:07:46;6.28;;;2.70;;
76566;SDS011;65428;53.194;6.132;2023-06-01T03:10:12;6.43;;;3.00;;
76566;SDS011;65428;53.194;6.132;2023-06-01T03:12:38;7.50;;;3.00;;
76566;SDS011;65428;53.194;6.132;2023-06-01T03:15:04;6.60;;;2.70;;
76566;SDS011;65428;53.194;6.132;2023-06-01T03:17:31;6.82;;;2.70;;
76566;SDS011;65428;53.194;6.132;2023-06-01T03:19:58;8.65;;;3.17;;
76566;SDS011;65428;53.194;6.132;2023-06-01T03:22:25;7.60;;;3.00;;
76566;SDS011;65428;53.194;6.132;2023-06-01T03:24:51;7.90;;;3.00;;
76566;SDS011;65428;53.194;6.132;2023-06-01T03:27:17;8.63;;;3.78;;
76566;SDS011;65428;53.194;6.132;2023-06-01T03:29:47;8.00;;;3.28;;
76566;SDS011;65428;53.194;6.132;2023-06-01T03:32:13;8.00;;;3.23;;
76566;SDS011;65428;53.194;6.132;2023-06-01T03:34:39;6.50;;;3.15;;
76566;SDS011;65428;53.194;6.132;2023-06-01T03:37:05;5.95;;;2.90;;
76566;SDS011;65428;53.194;6.132;2023-06-01T03:39:32;7.72;;;3.05;;
76566;SDS011;65428;53.194;6.132;2023-06-01T03:42:00;6.22;;;3.15;;
76566;SDS011;65428;53.194;6.132;2023-06-01T03:44:26;9.88;;;3.50;;
76566;SDS011;65428;53.194;6.132;2023-06-01T03:46:52;9.40;;;3.53;;
76566;SDS011;65428;53.194;6.132;2023-06-01T03:49:17;6.03;;;3.07;;
76566;SDS011;65428;53.194;6.132;2023-06-01T03:51:43;8.75;;;3.80;;
76566;SDS011;65428;53.194;6.132;2023-06-01T03:54:10;8.30;;;3.25;;
76566;SDS011;65428;53.194;6.132;2023-06-01T03:56:36;7.30;;;3.50;;
76566;SDS011;65428;53.194;6.132;2023-06-01T03:59:01;6.80;;;3.25;;
76566;SDS011;65428;53.194;6.132;2023-06-01T04:01:27;7.60;;;3.83;;
76566;SDS011;65428;53.194;6.132;2023-06-01T04:03:54;8.23;;;4.03;;
76566;SDS011;65428;53.194;6.132;2023-06-01T04:06:21;7.70;;;2.80;;
76566;SDS011;65428;53.194;6.132;2023-06-01T04:08:49;7.05;;;3.28;;
76566;SDS011;65428;53.194;6.132;2023-06-01T04:11:20;7.70;;;3.40;;
76566;SDS011;65428;53.194;6.132;2023-06-01T04:13:47;6.90;;;2.92;;
76566;SDS011;65428;53.194;6.132;2023-06-01T04:16:13;8.63;;;3.20;;
76566;SDS011;65428;53.194;6.132;2023-06-01T04:18:38;5.60;;;2.90;;
76566;SDS011;65428;53.194;6.132;2023-06-01T04:21:04;8.30;;;3.77;;
76566;SDS011;65428;53.194;6.132;2023-06-01T04:23:31;7.80;;;3.10;;
76566;SDS011;65428;53.194;6.132;2023-06-01T04:25:57;9.07;;;3.37;;
76566;SDS011;65428;53.194;6.132;2023-06-01T04:28:24;8.40;;;3.55;;
76566;SDS011;65428;53.194;6.132;2023-06-01T04:30:53;7.22;;;3.47;;
76566;SDS011;65428;53.194;6.132;2023-06-01T04:33:19;7.65;;;3.50;;
76566;SDS011;65428;53.194;6.132;2023-06-01T04:35:47;7.47;;;3.13;;
76566;SDS011;65428;53.194;6.132;2023-06-01T04:38:13;8.98;;;3.30;;
76566;SDS011;65428;53.194;6.132;2023-06-01T04:40:41;8.10;;;3.28;;
76566;SDS011;65428;53.194;6.132;2023-06-01T04:43:10;7.78;;;3.50;;
76566;SDS011;65428;53.194;6.132;2023-06-01T04:45:37;7.95;;;3.42;;
76566;SDS011;65428;53.194;6.132;2023-06-01T04:48:04;6.95;;;3.60;;
76566;SDS011;65428;53.194;6.132;2023-06-01T04:50:36;7.50;;;3.53;;
76566;SDS011;65428;53.194;6.132;2023-06-01T04:53:02;9.25;;;3.90;;
76566;SDS011;65428;53.194;6.132;2023-06-01T04:55:28;8.97;;;3.60;;
76566;SDS011;65428;53.194;6.132;2023-06-01T04:57:54;6.28;;;3.05;;
76566;SDS011;65428;53.194;6.132;2023-06-01T05:00:20;9.03;;;3.50;;
76566;SDS011;65428;53.194;6.132;2023-06-01T05:02:46;7.43;;;3.60;;
76566;SDS011;65428;53.194;6.132;2023-06-01T05:05:14;8.98;;;3.47;;
76566;SDS011;65428;53.194;6.132;2023-06-01T05:07:40;9.25;;;3.47;;
76566;SDS011;65428;53.194;6.132;2023-06-01T05:10:07;9.05;;;3.70;;
76566;SDS011;65428;53.194;6.132;2023-06-01T05:12:35;8.27;;;3.80;;
76566;SDS011;65428;53.194;6.132;2023-06-01T05:15:01;7.90;;;3.83;;
76566;SDS011;65428;53.194;6.132;2023-06-01T05:17:28;10.97;;;3.83;;
76566;SDS011;65428;53.194;6.132;2023-06-01T05:19:54;8.03;;;4.07;;
76566;SDS011;65428;53.194;6.132;2023-06-01T05:22:21;10.50;;;4.50;;
76566;SDS011;65428;53.194;6.132;2023-06-01T05:24:47;7.18;;;4.05;;
76566;SDS011;65428;53.194;6.132;2023-06-01T05:27:13;10.75;;;4.47;;
76566;SDS011;65428;53.194;6.132;2023-06-01T05:29:39;9.73;;;4.60;;
76566;SDS011;65428;53.194;6.132;2023-06-01T05:32:05;10.80;;;4.20;;
76566;SDS011;65428;53.194;6.132;2023-06-01T05:34:31;8.80;;;4.53;;
76566;SDS011;65428;53.194;6.132;2023-06-01T05:36:57;9.20;;;3.87;;
76566;SDS011;65428;53.194;6.132;2023-06-01T05:39:22;9.05;;;3.42;;
76566;SDS011;65428;53.194;6.132;2023-06-01T05:41:52;8.75;;;3.20;;
76566;SDS011;65428;53.194;6.132;2023-06-01T05:44:18;8.27;;;3.28;;
76566;SDS011;65428;53.194;6.132;2023-06-01T05:46:44;6.30;;;2.90;;
76566;SDS011;65428;53.194;6.132;2023-06-01T05:49:10;7.23;;;2.57;;
76566;SDS011;65428;53.194;6.132;2023-06-01T05:51:35;7.22;;;2.67;;
76566;SDS011;65428;53.194;6.132;2023-06-01T05:54:03;8.63;;;2.85;;
76566;SDS011;65428;53.194;6.132;2023-06-01T05:56:29;7.82;;;2.33;;
76566;SDS011;65428;53.194;6.132;2023-06-01T05:58:55;6.65;;;2.45;;
76566;SDS011;65428;53.194;6.132;2023-06-01T06:01:21;8.25;;;2.63;;
76566;SDS011;65428;53.194;6.132;2023-06-01T06:03:47;8.48;;;2.60;;
76566;SDS011;65428;53.194;6.132;2023-06-01T06:06:13;8.88;;;2.40;;
76566;SDS011;65428;53.194;6.132;2023-06-01T06:08:38;8.80;;;2.90;;
76566;SDS011;65428;53.194;6.132;2023-06-01T06:11:04;8.70;;;2.65;;
76566;SDS011;65428;53.194;6.132;2023-06-01T06:13:30;7.97;;;2.90;;
76566;SDS011;65428;53.194;6.132;2023-06-01T06:15:56;10.30;;;2.90;;
76566;SDS011;65428;53.194;6.132;2023-06-01T06:18:21;7.03;;;2.33;;
76566;SDS011;65428;53.194;6.132;2023-06-01T06:20:47;7.03;;;2.40;;
76566;SDS011;65428;53.194;6.132;2023-06-01T06:23:12;8.27;;;2.53;;
76566;SDS011;65428;53.194;6.132;2023-06-01T06:25:38;7.77;;;2.50;;
76566;SDS011;65428;53.194;6.132;2023-06-01T06:28:05;8.30;;;3.20;;
76566;SDS011;65428;53.194;6.132;2023-06-01T06:30:31;7.53;;;2.50;;
76566;SDS011;65428;53.194;6.132;2023-06-01T06:32:56;6.97;;;2.97;;
76566;SDS011;65428;53.194;6.132;2023-06-01T06:35:22;6.70;;;2.60;;
76566;SDS011;65428;53.194;6.132;2023-06-01T06:37:48;8.57;;;1.87;;
76566;SDS011;65428;53.194;6.132;2023-06-01T06:40:13;6.03;;;2.00;;
76566;SDS011;65428;53.194;6.132;2023-06-01T06:42:39;5.57;;;2.00;;
76566;SDS011;65428;53.194;6.132;2023-06-01T06:45:05;5.93;;;2.03;;
76566;SDS011;65428;53.194;6.132;2023-06-01T06:47:31;5.95;;;1.95;;
76566;SDS011;65428;53.194;6.132;2023-06-01T06:49:57;5.20;;;2.10;;
76566;SDS011;65428;53.194;6.132;2023-06-01T06:52:23;4.78;;;2.10;;
76566;SDS011;65428;53.194;6.132;2023-06-01T06:54:48;6.53;;;2.40;;
76566;SDS011;65428;53.194;6.132;2023-06-01T06:57:14;6.00;;;1.95;;
76566;SDS011;65428;53.194;6.132;2023-06-01T06:59:39;5.30;;;1.80;;
76566;SDS011;65428;53.194;6.132;2023-06-01T07:02:05;5.22;;;2.00;;
76566;SDS011;65428;53.194;6.132;2023-06-01T07:04:31;7.38;;;2.30;;
76566;SDS011;65428;53.194;6.132;2023-06-01T07:06:57;8.33;;;2.53;;
76566;SDS011;65428;53.194;6.132;2023-06-01T07:09:22;6.30;;;1.80;;
76566;SDS011;65428;53.194;6.132;2023-06-01T07:11:48;4.57;;;1.40;;
76566;SDS011;65428;53.194;6.132;2023-06-01T07:14:14;4.83;;;1.23;;
76566;SDS011;65428;53.194;6.132;2023-06-01T07:16:40;5.30;;;1.30;;
76566;SDS011;65428;53.194;6.132;2023-06-01T07:19:06;4.68;;;1.30;;
76566;SDS011;65428;53.194;6.132;2023-06-01T07:21:32;5.75;;;1.30;;
76566;SDS011;65428;53.194;6.132;2023-06-01T07:23:58;4.63;;;1.38;;
76566;SDS011;65428;53.194;6.132;2023-06-01T07:26:23;6.40;;;1.58;;
76566;SDS011;65428;53.194;6.132;2023-06-01T07:28:51;3.92;;;1.58;;
76566;SDS011;65428;53.194;6.132;2023-06-01T07:31:19;6.03;;;1.70;;
76566;SDS011;65428;53.194;6.132;2023-06-01T07:33:45;4.20;;;1.80;;
76566;SDS011;65428;53.194;6.132;2023-06-01T07:36:11;4.77;;;1.57;;
76566;SDS011;65428;53.194;6.132;2023-06-01T07:38:36;7.32;;;1.60;;
76566;SDS011;65428;53.194;6.132;2023-06-01T07:41:02;6.18;;;1.80;;
76566;SDS011;65428;53.194;6.132;2023-06-01T07:43:28;3.65;;;1.13;;
76566;SDS011;65428;53.194;6.132;2023-06-01T07:45:54;3.93;;;0.90;;
76566;SDS011;65428;53.194;6.132;2023-06-01T07:48:20;3.90;;;1.10;;
76566;SDS011;65428;53.194;6.132;2023-06-01T07:50:46;5.20;;;1.30;;
76566;SDS011;65428;53.194;6.132;2023-06-01T07:53:12;4.70;;;1.10;;
76566;SDS011;65428;53.194;6.132;2023-06-01T07:55:38;5.25;;;1.48;;
76566;SDS011;65428;53.194;6.132;2023-06-01T07:58:04;5.25;;;1.65;;
76566;SDS011;65428;53.194;6.132;2023-06-01T08:00:30;6.82;;;1.77;;
76566;SDS011;65428;53.194;6.132;2023-06-01T08:02:56;5.93;;;1.60;;
76566;SDS011;65428;53.194;6.132;2023-06-01T08:05:24;7.03;;;1.92;;
76566;SDS011;65428;53.194;6.132;2023-06-01T08:07:49;7.93;;;2.50;;
76566;SDS011;65428;53.194;6.132;2023-06-01T08:10:15;5.75;;;2.20;;
76566;SDS011;65428;53.194;6.132;2023-06-01T08:12:41;7.25;;;2.13;;
76566;SDS011;65428;53.194;6.132;2023-06-01T08:15:09;7.93;;;2.17;;
76566;SDS011;65428;53.194;6.132;2023-06-01T08:17:36;7.13;;;2.30;;
76566;SDS011;65428;53.194;6.132;2023-06-01T08:20:03;9.10;;;2.40;;
76566;SDS011;65428;53.194;6.132;2023-06-01T08:22:35;9.77;;;3.08;;
76566;SDS011;65428;53.194;6.132;2023-06-01T08:25:02;10.27;;;3.30;;
76566;SDS011;65428;53.194;6.132;2023-06-01T08:27:28;9.40;;;2.80;;
76566;SDS011;65428;53.194;6.132;2023-06-01T08:29:54;9.00;;;2.90;;
76566;SDS011;65428;53.194;6.132;2023-06-01T08:32:19;9.38;;;2.80;;
76566;SDS011;65428;53.194;6.132;2023-06-01T08:34:45;10.20;;;2.88;;
76566;SDS011;65428;53.194;6.132;2023-06-01T08:37:12;9.18;;;2.50;;
76566;SDS011;65428;53.194;6.132;2023-06-01T08:39:41;7.85;;;2.50;;
76566;SDS011;65428;53.194;6.132;2023-06-01T08:44:55;9.00;;;2.07;;
76566;SDS011;65428;53.194;6.132;2023-06-01T08:47:26;6.45;;;1.90;;
76566;SDS011;65428;53.194;6.132;2023-06-01T08:49:53;8.05;;;2.45;;
76566;SDS011;65428;53.194;6.132;2023-06-01T08:52:21;8.27;;;2.22;;
76566;SDS011;65428;53.194;6.132;2023-06-01T08:54:49;8.85;;;2.55;;
76566;SDS011;65428;53.194;6.132;2023-06-01T08:57:15;9.23;;;2.60;;
76566;SDS011;65428;53.194;6.132;2023-06-01T08:59:41;8.63;;;2.28;;
76566;SDS011;65428;53.194;6.132;2023-06-01T09:02:10;9.32;;;2.35;;
76566;SDS011;65428;53.194;6.132;2023-06-01T09:04:35;12.20;;;2.63;;
76566;SDS011;65428;53.194;6.132;2023-06-01T09:07:06;9.60;;;2.50;;
76566;SDS011;65428;53.194;6.132;2023-06-01T09:09:32;10.83;;;2.23;;
76566;SDS011;65428;53.194;6.132;2023-06-01T09:15:11;8.63;;;1.95;;
76566;SDS011;65428;53.194;6.132;2023-06-01T09:17:41;7.85;;;1.50;;
76566;SDS011;65428;53.194;6.132;2023-06-01T09:20:12;8.48;;;1.80;;
76566;SDS011;65428;53.194;6.132;2023-06-01T09:22:54;6.65;;;1.50;;
76566;SDS011;65428;53.194;6.132;2023-06-01T09:25:24;7.67;;;1.40;;
76566;SDS011;65428;53.194;6.132;2023-06-01T09:27:55;7.00;;;1.47;;
76566;SDS011;65428;53.194;6.132;2023-06-01T09:30:23;6.95;;;1.40;;
76566;SDS011;65428;53.194;6.132;2023-06-01T09:32:50;8.02;;;1.55;;
76566;SDS011;65428;53.194;6.132;2023-06-01T09:38:08;6.30;;;1.42;;
76566;SDS011;65428;53.194;6.132;2023-06-01T09:40:36;8.13;;;1.58;;
76566;SDS011;65428;53.194;6.132;2023-06-01T09:43:03;8.32;;;1.60;;
76566;SDS011;65428;53.194;6.132;2023-06-01T09:45:43;7.30;;;1.40;;
76566;SDS011;65428;53.194;6.132;2023-06-01T09:48:18;7.47;;;1.60;;
76566;SDS011;65428;53.194;6.132;2023-06-01T09:50:44;7.03;;;1.38;;
76566;SDS011;65428;53.194;6.132;2023-06-01T09:53:09;7.32;;;1.48;;
76566;SDS011;65428;53.194;6.132;2023-06-01T09:55:35;5.47;;;1.25;;
76566;SDS011;65428;53.194;6.132;2023-06-01T09:58:20;8.07;;;1.73;;
76566;SDS011;65428;53.194;6.132;2023-06-01T10:00:47;6.07;;;1.20;;
76566;SDS011;65428;53.194;6.132;2023-06-01T10:03:14;6.63;;;1.60;;
76566;SDS011;65428;53.194;6.132;2023-06-01T10:05:41;8.02;;;1.80;;
76566;SDS011;65428;53.194;6.132;2023-06-01T10:08:08;6.57;;;1.50;;
76566;SDS011;65428;53.194;6.132;2023-06-01T10:10:38;7.20;;;1.80;;
76566;SDS011;65428;53.194;6.132;2023-06-01T10:13:05;5.95;;;1.48;;
76566;SDS011;65428;53.194;6.132;2023-06-01T10:15:32;8.10;;;1.60;;
76566;SDS011;65428;53.194;6.132;2023-06-01T10:17:58;7.40;;;2.20;;
76566;SDS011;65428;53.194;6.132;2023-06-01T10:20:32;9.07;;;2.20;;
76566;SDS011;65428;53.194;6.132;2023-06-01T10:22:59;6.55;;;1.50;;
76566;SDS011;65428;53.194;6.132;2023-06-01T10:25:25;7.50;;;1.67;;
76566;SDS011;65428;53.194;6.132;2023-06-01T10:28:06;6.57;;;1.45;;
76566;SDS011;65428;53.194;6.132;2023-06-01T10:30:35;8.97;;;1.63;;
76566;SDS011;65428;53.194;6.132;2023-06-01T10:33:01;6.57;;;1.63;;
76566;SDS011;65428;53.194;6.132;2023-06-01T10:40:38;6.70;;;2.00;;
76566;SDS011;65428;53.194;6.132;2023-06-01T10:43:04;7.15;;;2.13;;
76566;SDS011;65428;53.194;6.132;2023-06-01T10:48:09;4.85;;;1.52;;
76566;SDS011;65428;53.194;6.132;2023-06-01T10:50:36;8.40;;;1.80;;
76566;SDS011;65428;53.194;6.132;2023-06-01T10:53:24;7.00;;;1.90;;
76566;SDS011;65428;53.194;6.132;2023-06-01T11:01:42;5.90;;;1.80;;
76566;SDS011;65428;53.194;6.132;2023-06-01T11:04:09;7.82;;;1.55;;
76566;SDS011;65428;53.194;6.132;2023-06-01T11:06:36;7.03;;;1.50;;
76566;SDS011;65428;53.194;6.132;2023-06-01T11:09:05;5.47;;;1.20;;
76566;SDS011;65428;53.194;6.132;2023-06-01T11:14:13;4.35;;;1.20;;
76566;SDS011;65428;53.194;6.132;2023-06-01T11:16:40;4.97;;;1.42;;
76566;SDS011;65428;53.194;6.132;2023-06-01T11:19:06;5.40;;;1.37;;
76566;SDS011;65428;53.194;6.132;2023-06-01T11:21:35;6.03;;;1.60;;
76566;SDS011;65428;53.194;6.132;2023-06-01T11:24:15;6.72;;;2.03;;
76566;SDS011;65428;53.194;6.132;2023-06-01T11:26:43;5.43;;;1.50;;
76566;SDS011;65428;53.194;6.132;2023-06-01T11:31:41;5.07;;;1.52;;
76566;SDS011;65428;53.194;6.132;2023-06-01T11:34:09;3.65;;;1.08;;
76566;SDS011;65428;53.194;6.132;2023-06-01T11:36:36;4.25;;;1.10;;
76566;SDS011;65428;53.194;6.132;2023-06-01T11:39:05;4.10;;;1.10;;
76566;SDS011;65428;53.194;6.132;2023-06-01T11:41:33;5.28;;;1.10;;
76566;SDS011;65428;53.194;6.132;2023-06-01T11:44:00;7.03;;;1.70;;
76566;SDS011;65428;53.194;6.132;2023-06-01T11:46:26;5.23;;;1.50;;
76566;SDS011;65428;53.194;6.132;2023-06-01T11:49:03;6.35;;;1.30;;
76566;SDS011;65428;53.194;6.132;2023-06-01T11:51:36;7.37;;;1.57;;
76566;SDS011;65428;53.194;6.132;2023-06-01T11:54:03;6.60;;;1.60;;
76566;SDS011;65428;53.194;6.132;2023-06-01T11:56:29;6.22;;;1.80;;
76566;SDS011;65428;53.194;6.132;2023-06-01T11:59:02;6.28;;;2.00;;
76566;SDS011;65428;53.194;6.132;2023-06-01T12:01:36;7.30;;;1.70;;
76566;SDS011;65428;53.194;6.132;2023-06-01T12:04:14;6.18;;;1.52;;
76566;SDS011;65428;53.194;6.132;2023-06-01T12:06:44;8.23;;;1.90;;
76566;SDS011;65428;53.194;6.132;2023-06-01T12:09:11;10.65;;;2.28;;
76566;SDS011;65428;53.194;6.132;2023-06-01T12:11:38;7.05;;;1.83;;
76566;SDS011;65428;53.194;6.132;2023-06-01T12:14:06;10.10;;;2.20;;
76566;SDS011;65428;53.194;6.132;2023-06-01T12:19:21;9.93;;;2.55;;
76566;SDS011;65428;53.194;6.132;2023-06-01T12:21:51;6.32;;;1.70;;
76566;SDS011;65428;53.194;6.132;2023-06-01T12:24:31;6.93;;;1.90;;
76566;SDS011;65428;53.194;6.132;2023-06-01T12:27:00;5.55;;;1.33;;
76566;SDS011;65428;53.194;6.132;2023-06-01T12:29:43;4.78;;;1.77;;
76566;SDS011;65428;53.194;6.132;2023-06-01T12:32:11;5.18;;;1.42;;
76566;SDS011;65428;53.194;6.132;2023-06-01T12:34:39;6.95;;;1.50;;
76566;SDS011;65428;53.194;6.132;2023-06-01T12:37:18;7.32;;;1.77;;
76566;SDS011;65428;53.194;6.132;2023-06-01T12:39:52;7.63;;;1.75;;
76566;SDS011;65428;53.194;6.132;2023-06-01T12:42:19;7.18;;;1.92;;
76566;SDS011;65428;53.194;6.132;2023-06-01T12:44:51;8.73;;;2.20;;
76566;SDS011;65428;53.194;6.132;2023-06-01T12:47:20;10.45;;;2.97;;
76566;SDS011;65428;53.194;6.132;2023-06-01T12:50:02;8.27;;;2.30;;
76566;SDS011;65428;53.194;6.132;2023-06-01T12:52:31;9.07;;;2.20;;
76566;SDS011;65428;53.194;6.132;2023-06-01T12:54:57;7.60;;;2.33;;
76566;SDS011;65428;53.194;6.132;2023-06-01T12:57:23;6.70;;;2.03;;
76566;SDS011;65428;53.194;6.132;2023-06-01T12:59:48;8.95;;;2.40;;
76566;SDS011;65428;53.194;6.132;2023-06-01T13:02:14;9.70;;;2.65;;
76566;SDS011;65428;53.194;6.132;2023-06-01T13:04:41;11.53;;;3.13;;
76566;SDS011;65428;53.194;6.132;2023-06-01T13:07:07;11.15;;;3.85;;
76566;SDS011;65428;53.194;6.132;2023-06-01T13:09:32;7.83;;;3.00;;
76566;SDS011;65428;53.194;6.132;2023-06-01T13:11:58;9.98;;;2.97;;
76566;SDS011;65428;53.194;6.132;2023-06-01T13:14:24;8.95;;;3.10;;
76566;SDS011;65428;53.194;6.132;2023-06-01T13:16:50;10.52;;;2.95;;
76566;SDS011;65428;53.194;6.132;2023-06-01T13:19:16;8.87;;;2.60;;
76566;SDS011;65428;53.194;6.132;2023-06-01T13:21:42;9.17;;;2.40;;
76566;SDS011;65428;53.194;6.132;2023-06-01T13:24:07;6.53;;;1.73;;
76566;SDS011;65428;53.194;6.132;2023-06-01T13:26:35;6.35;;;1.85;;
76566;SDS011;65428;53.194;6.132;2023-06-01T13:29:02;7.20;;;1.80;;
76566;SDS011;65428;53.194;6.132;2023-06-01T13:31:31;8.85;;;1.80;;
76566;SDS011;65428;53.194;6.132;2023-06-01T13:33:58;5.75;;;1.88;;
76566;SDS011;65428;53.194;6.132;2023-06-01T13:36:24;6.38;;;1.40;;
76566;SDS011;65428;53.194;6.132;2023-06-01T13:38:49;7.90;;;2.13;;
76566;SDS011;65428;53.194;6.132;2023-06-01T13:41:15;6.53;;;2.10;;
76566;SDS011;65428;53.194;6.132;2023-06-01T13:43:41;6.90;;;1.87;;
76566;SDS011;65428;53.194;6.132;2023-06-01T13:46:06;8.55;;;1.80;;
76566;SDS011;65428;53.194;6.132;2023-06-01T13:48:35;6.18;;;1.40;;
76566;SDS011;65428;53.194;6.132;2023-06-01T13:51:01;7.07;;;1.70;;
76566;SDS011;65428;53.194;6.132;2023-06-01T13:53:27;7.53;;;1.85;;
76566;SDS011;65428;53.194;6.132;2023-06-01T13:55:53;6.88;;;1.60;;
76566;SDS011;65428;53.194;6.132;2023-06-01T13:58:19;6.33;;;1.33;;
76566;SDS011;65428;53.194;6.132;2023-06-01T14:00:44;5.72;;;1.20;;
76566;SDS011;65428;53.194;6.132;2023-06-01T14:03:10;5.00;;;0.98;;
76566;SDS011;65428;53.194;6.132;2023-06-01T14:05:36;6.53;;;1.60;;
76566;SDS011;65428;53.194;6.132;2023-06-01T14:08:01;5.53;;;1.60;;
76566;SDS011;65428;53.194;6.132;2023-06-01T14:10:29;5.20;;;1.35;;
76566;SDS011;65428;53.194;6.132;2023-06-01T14:12:56;4.70;;;1.40;;
76566;SDS011;65428;53.194;6.132;2023-06-01T14:15:22;5.83;;;1.50;;
76566;SDS011;65428;53.194;6.132;2023-06-01T14:17:47;5.65;;;1.20;;
76566;SDS011;65428;53.194;6.132;2023-06-01T14:20:15;6.53;;;1.40;;
76566;SDS011;65428;53.194;6.132;2023-06-01T14:22:40;6.75;;;1.25;;
76566;SDS011;65428;53.194;6.132;2023-06-01T14:25:07;6.95;;;0.95;;
76566;SDS011;65428;53.194;6.132;2023-06-01T14:27:33;7.30;;;1.10;;
76566;SDS011;65428;53.194;6.132;2023-06-01T14:29:58;6.20;;;1.20;;
76566;SDS011;65428;53.194;6.132;2023-06-01T14:32:27;5.90;;;1.35;;
76566;SDS011;65428;53.194;6.132;2023-06-01T14:34:53;6.13;;;1.80;;
76566;SDS011;65428;53.194;6.132;2023-06-01T14:37:18;7.27;;;1.73;;
76566;SDS011;65428;53.194;6.132;2023-06-01T14:39:44;6.32;;;1.85;;
76566;SDS011;65428;53.194;6.132;2023-06-01T14:42:11;5.80;;;1.60;;
76566;SDS011;65428;53.194;6.132;2023-06-01T14:44:37;7.10;;;1.50;;
76566;SDS011;65428;53.194;6.132;2023-06-01T14:47:03;7.70;;;2.00;;
76566;SDS011;65428;53.194;6.132;2023-06-01T14:49:28;6.38;;;1.40;;
76566;SDS011;65428;53.194;6.132;2023-06-01T14:51:54;7.15;;;1.60;;
76566;SDS011;65428;53.194;6.132;2023-06-01T14:54:20;6.43;;;1.60;;
76566;SDS011;65428;53.194;6.132;2023-06-01T14:56:46;6.82;;;1.92;;
76566;SDS011;65428;53.194;6.132;2023-06-01T14:59:11;7.15;;;1.75;;
76566;SDS011;65428;53.194;6.132;2023-06-01T15:01:37;5.47;;;1.47;;
76566;SDS011;65428;53.194;6.132;2023-06-01T15:04:05;6.88;;;1.40;;
76566;SDS011;65428;53.194;6.132;2023-06-01T15:06:31;5.55;;;1.40;;
76566;SDS011;65428;53.194;6.132;2023-06-01T15:08:57;5.57;;;0.83;;
76566;SDS011;65428;53.194;6.132;2023-06-01T15:11:22;4.63;;;0.90;;
76566;SDS011;65428;53.194;6.132;2023-06-01T15:13:48;4.20;;;0.70;;
76566;SDS011;65428;53.194;6.132;2023-06-01T15:16:15;3.55;;;0.90;;
76566;SDS011;65428;53.194;6.132;2023-06-01T15:18:41;3.70;;;0.90;;
76566;SDS011;65428;53.194;6.132;2023-06-01T15:21:06;4.40;;;0.93;;
76566;SDS011;65428;53.194;6.132;2023-06-01T15:23:32;4.70;;;0.70;;
76566;SDS011;65428;53.194;6.132;2023-06-01T15:25:58;4.80;;;0.98;;
76566;SDS011;65428;53.194;6.132;2023-06-01T15:28:24;4.43;;;0.80;;
76566;SDS011;65428;53.194;6.132;2023-06-01T15:30:50;5.50;;;1.00;;